createdAt,value
2022-09-10T01:03:25.373Z,100612.78
2022-09-10T01:05:54.177Z,100582.38
2022-09-10T01:08:21.717Z,100586.56
2022-09-10T01:11:08.573Z,100579.34
2022-09-10T01:13:49.777Z,100585.09
2022-09-10T01:16:32.587Z,100643.44
2022-09-10T01:19:26.332Z,100656.00
2022-09-10T01:22:16.900Z,100657.28
2022-09-10T01:24:53.189Z,100697.13
2022-09-10T01:27:50.253Z,100726.38
2022-09-10T01:30:21.577Z,100739.69
2022-09-10T01:32:58.136Z,100720.53
2022-09-10T01:35:41.254Z,100710.69
2022-09-10T01:38:25.603Z,100663.59
2022-09-10T01:40:56.545Z,100637.41
2022-09-10T01:43:25.956Z,100612.00
2022-09-10T01:45:57.209Z,100602.69
2022-09-10T01:48:49.454Z,100600.44
2022-09-10T01:51:41.134Z,100559.63
2022-09-10T01:54:26.449Z,100524.84
2022-09-10T01:57:44.475Z,100512.59
2022-09-10T02:00:16.589Z,100476.84
2022-09-10T02:02:57.782Z,100439.31
2022-09-10T02:05:31.659Z,100376.34
2022-09-10T02:08:05.370Z,100399.97
2022-09-10T02:10:34.264Z,100452.53
2022-09-10T02:13:01.999Z,100452.41
2022-09-10T02:15:56.775Z,100496.47
2022-09-10T02:18:27.330Z,100488.69
2022-09-10T02:20:58.155Z,100478.69
2022-09-10T02:23:33.692Z,100486.03
2022-09-10T02:26:01.259Z,100476.75
2022-09-10T02:28:30.274Z,100473.66
2022-09-10T02:31:03.235Z,100479.25
2022-09-10T02:33:36.324Z,100460.47
2022-09-10T02:36:03.937Z,100474.44
2022-09-10T02:38:33.735Z,100464.78
2022-09-10T02:41:02.356Z,100469.28
2022-09-10T02:43:30.136Z,100469.25
2022-09-10T02:46:02.529Z,100482.41
2022-09-10T02:48:31.111Z,100478.31
2022-09-10T02:50:59.203Z,100467.81
2022-09-10T02:53:31.015Z,100469.63
2022-09-10T02:56:03.234Z,100472.28
2022-09-10T02:58:31.976Z,100466.25
2022-09-10T03:01:14.876Z,100475.16
2022-09-10T03:03:44.153Z,100485.09
2022-09-10T03:06:11.865Z,100494.28
2022-09-10T03:08:39.540Z,100492.81
2022-09-10T03:11:08.171Z,100488.41
2022-09-10T03:13:35.830Z,100484.91
2022-09-10T03:16:06.609Z,100493.00
2022-09-10T03:18:35.362Z,100494.06
2022-09-10T03:21:13.225Z,100500.59
2022-09-10T03:23:42.153Z,100493.69
2022-09-10T03:26:10.992Z,100499.31
2022-09-10T03:28:38.780Z,100506.59
2022-09-10T03:31:08.801Z,100517.81
2022-09-10T03:33:42.014Z,100511.16
2022-09-10T03:36:10.280Z,100514.19
2022-09-10T03:38:37.896Z,100518.66
2022-09-10T03:41:06.732Z,100523.72
2022-09-10T03:43:34.376Z,100524.31
2022-09-10T03:46:06.791Z,100536.19
2022-09-10T03:48:39.530Z,100541.75
2022-09-10T03:51:13.573Z,100545.25
2022-09-10T03:53:42.162Z,100541.50
2022-09-10T03:56:11.303Z,100536.88
2022-09-10T03:58:42.833Z,100546.28
2022-09-10T04:01:11.278Z,100543.88
2022-09-10T04:03:42.762Z,100545.53
2022-09-10T04:06:14.762Z,100553.75
2022-09-10T04:08:45.731Z,100556.38
2022-09-10T04:11:16.121Z,100566.59
2022-09-10T04:13:44.656Z,100586.63
2022-09-10T04:16:13.337Z,100571.47
2022-09-10T04:18:41.373Z,100574.13
2022-09-10T04:21:09.628Z,100573.97
2022-09-10T04:23:41.256Z,100570.28
2022-09-10T04:26:14.728Z,100579.78
2022-09-10T04:28:44.798Z,100582.94
2022-09-10T04:31:13.018Z,100585.59
2022-09-10T04:33:40.650Z,100582.84
2022-09-10T04:36:12.914Z,100572.41
2022-09-10T04:38:44.176Z,100578.00
2022-09-10T04:41:15.661Z,100584.81
2022-09-10T04:43:43.981Z,100579.91
2022-09-10T04:46:11.950Z,100588.59
2022-09-10T04:48:44.747Z,100572.00
2022-09-10T04:51:18.078Z,100574.06
2022-09-10T04:53:51.453Z,100586.19
2022-09-10T04:56:21.267Z,100583.25
2022-09-10T04:58:49.555Z,100599.41
2022-09-10T05:01:17.484Z,100606.13
2022-09-10T05:03:46.349Z,100615.94
2022-09-10T05:06:14.377Z,100616.22
2022-09-10T05:08:41.950Z,100610.59
2022-09-10T05:11:11.587Z,100619.44
2022-09-10T05:13:41.629Z,100619.22
2022-09-10T05:16:09.230Z,100607.13
2022-09-10T05:18:36.881Z,100612.78
2022-09-10T05:21:05.519Z,100614.09
2022-09-10T05:23:35.856Z,100619.97
2022-09-10T05:26:06.738Z,100623.34
2022-09-10T05:28:34.621Z,100616.38
2022-09-10T05:31:09.618Z,100625.03
2022-09-10T05:33:40.892Z,100622.41
2022-09-10T05:36:11.707Z,100621.59
2022-09-10T05:38:45.773Z,100621.72
2022-09-10T05:41:14.360Z,100635.22
2022-09-10T05:43:49.880Z,100641.53
2022-09-10T05:46:20.764Z,100640.88
2022-09-10T05:48:54.286Z,100646.41
2022-09-10T05:51:22.469Z,100648.22
2022-09-10T05:53:51.244Z,100653.25
2022-09-10T05:56:20.665Z,100660.63
2022-09-10T05:58:48.686Z,100664.47
2022-09-10T06:01:22.005Z,100661.22
2022-09-10T06:03:51.269Z,100670.66
2022-09-10T06:06:20.929Z,100664.25
2022-09-10T06:08:56.260Z,100676.03
2022-09-10T06:11:50.020Z,100681.75
2022-09-10T06:14:27.630Z,100682.28
2022-09-10T06:16:55.344Z,100685.47
2022-09-10T06:19:26.448Z,100681.03
2022-09-10T06:21:56.953Z,100683.31
2022-09-10T06:24:26.082Z,100684.84
2022-09-10T06:26:57.761Z,100684.84
2022-09-10T06:29:28.337Z,100688.03
2022-09-10T06:31:56.216Z,100692.50
2022-09-10T06:34:24.880Z,100691.66
2022-09-10T06:36:59.315Z,100688.69
2022-09-10T06:39:29.056Z,100698.03
2022-09-10T06:42:03.450Z,100692.03
2022-09-10T06:45:02.954Z,100686.78
2022-09-10T06:51:04.359Z,100688.38
2022-09-10T06:53:36.718Z,100690.59
2022-09-10T06:56:10.578Z,100689.78
2022-09-10T06:58:43.188Z,100698.03
2022-09-10T07:01:21.306Z,100694.31
2022-09-10T07:04:00.051Z,100702.78
2022-09-10T07:06:35.490Z,100700.75
2022-09-10T07:09:15.057Z,100685.94
2022-09-10T07:12:05.054Z,100700.00
2022-09-10T07:14:49.973Z,100698.75
2022-09-10T07:17:32.078Z,100698.72
2022-09-10T07:20:17.962Z,100711.91
2022-09-10T07:22:57.162Z,100707.38
2022-09-10T07:25:33.580Z,100716.81
2022-09-10T07:28:24.446Z,100708.41
2022-09-10T07:30:54.569Z,100720.19
2022-09-10T07:33:27.676Z,100712.84
2022-09-10T07:35:55.404Z,100701.44
2022-09-10T07:38:23.762Z,100709.44
2022-09-10T07:40:53.863Z,100715.41
2022-09-10T07:43:21.708Z,100709.94
2022-09-10T07:45:53.256Z,100712.41
2022-09-10T07:48:25.482Z,100718.22
2022-09-10T07:50:53.645Z,100717.34
2022-09-10T07:53:26.557Z,100723.69
2022-09-10T07:56:05.213Z,100728.03
2022-09-10T07:58:39.028Z,100715.91
2022-09-10T08:01:13.253Z,100726.66
2022-09-10T08:03:41.855Z,100729.72
2022-09-10T08:06:16.987Z,100723.06
2022-09-10T08:23:25.400Z,100744.16
2022-09-10T08:25:53.969Z,100745.50
2022-09-10T08:28:25.644Z,100745.16
2022-09-10T08:31:08.602Z,100748.19
2022-09-10T08:33:49.558Z,100741.84
2022-09-10T08:36:18.658Z,100749.22
2022-09-10T08:38:46.755Z,100746.34
2022-09-10T08:41:41.578Z,100748.94
2022-09-10T08:44:29.531Z,100755.00
2022-09-10T08:47:28.697Z,100768.00
2022-09-10T08:50:06.846Z,100753.59
2022-09-10T08:52:46.829Z,100754.50
2022-09-10T08:55:29.393Z,100750.75
2022-09-10T08:58:04.017Z,100751.75
2022-09-10T09:00:34.991Z,100757.06
2022-09-10T09:03:37.438Z,100757.00
2022-09-10T09:06:13.075Z,100755.19
2022-09-10T09:08:50.070Z,100761.53
2022-09-10T09:12:06.167Z,100754.53
2022-09-10T09:14:45.332Z,100766.19
2022-09-10T09:17:38.657Z,100767.13
2022-09-10T09:20:18.386Z,100771.97
2022-09-10T09:23:03.479Z,100755.16
2022-09-10T09:25:46.981Z,100752.91
2022-09-10T09:28:32.178Z,100742.72
2022-09-10T09:31:09.302Z,100761.69
2022-09-10T09:33:39.750Z,100756.16
2022-09-10T09:36:16.922Z,100760.88
2022-09-10T09:38:50.990Z,100761.19
2022-09-10T09:41:31.006Z,100743.91
2022-09-10T09:44:12.056Z,100737.75
2022-09-10T09:46:40.333Z,100733.88
2022-09-10T09:49:16.421Z,100730.22
2022-09-10T09:51:47.900Z,100734.19
2022-09-10T09:55:10.168Z,100733.88
2022-09-10T09:57:22.181Z,100724.88
2022-09-10T09:59:51.892Z,100722.69
2022-09-10T10:02:22.619Z,100716.78
2022-09-10T10:05:07.190Z,100720.41
2022-09-10T10:07:39.379Z,100716.44
2022-09-10T10:10:07.961Z,100720.84
2022-09-10T10:12:51.143Z,100704.00
2022-09-10T10:15:42.452Z,100708.50
2022-09-10T10:18:22.010Z,100714.66
2022-09-10T10:21:05.844Z,100700.38
2022-09-10T10:23:38.167Z,100714.22
2022-09-10T10:26:23.917Z,100702.78
2022-09-10T10:28:56.398Z,100700.03
2022-09-10T10:31:24.249Z,100696.31
2022-09-10T10:34:17.851Z,100690.56
2022-09-10T10:37:19.112Z,100686.00
2022-09-10T10:40:10.268Z,100682.69
2022-09-10T10:43:00.329Z,100683.09
2022-09-10T10:45:39.481Z,100677.19
2022-09-10T10:48:12.520Z,100673.13
2022-09-10T10:51:15.036Z,100677.25
2022-09-10T10:54:40.527Z,100665.41
2022-09-10T10:57:22.606Z,100658.06
2022-09-10T11:00:09.849Z,100659.88
2022-09-10T11:02:54.593Z,100652.09
2022-09-10T11:05:31.923Z,100654.56
2022-09-10T11:08:15.166Z,100651.72
2022-09-10T11:10:47.632Z,100654.84
2022-09-10T11:13:31.741Z,100663.81
2022-09-10T11:16:06.948Z,100660.25
2022-09-10T11:18:43.004Z,100662.50
2022-09-10T11:21:34.102Z,100651.16
2022-09-10T11:24:18.995Z,100646.00
2022-09-10T11:27:07.630Z,100647.16
2022-09-10T11:29:58.026Z,100641.75
2022-09-10T11:32:48.653Z,100641.56
2022-09-10T11:35:29.295Z,100643.25
2022-09-10T11:38:24.948Z,100636.84
2022-09-10T11:41:14.462Z,100625.59
2022-09-10T11:43:50.319Z,100625.88
2022-09-10T11:46:56.434Z,100626.72
2022-09-10T11:49:26.298Z,100634.31
2022-09-10T11:51:53.910Z,100616.56
2022-09-10T11:54:31.699Z,100617.41
2022-09-10T11:57:06.779Z,100609.09
2022-09-10T11:59:35.020Z,100606.50
2022-09-10T12:02:26.075Z,100606.72
2022-09-10T12:05:11.515Z,100609.84
2022-09-10T12:07:57.895Z,100603.56
2022-09-10T12:11:04.900Z,100594.28
2022-09-10T12:13:37.423Z,100585.94
2022-09-10T12:16:36.560Z,100574.66
2022-09-10T12:19:17.351Z,100579.34
2022-09-10T12:21:51.873Z,100577.72
2022-09-10T12:24:31.149Z,100573.66
2022-09-10T12:27:06.539Z,100568.03
2022-09-10T12:29:40.829Z,100566.81
2022-09-10T12:32:29.315Z,100571.63
2022-09-10T12:35:30.533Z,100564.53
2022-09-10T12:38:36.759Z,100560.75
2022-09-10T12:41:09.736Z,100563.06
2022-09-10T12:43:41.902Z,100558.16
2022-09-10T12:46:09.712Z,100553.59
2022-09-10T12:48:48.711Z,100538.75
2022-09-10T12:51:37.096Z,100539.50
2022-09-10T12:54:04.518Z,100536.56
2022-09-10T12:56:47.003Z,100547.19
2022-09-10T12:59:32.388Z,100541.13
2022-09-10T13:02:00.621Z,100536.56
2022-09-10T13:04:36.666Z,100541.41
2022-09-10T13:07:19.852Z,100531.59
2022-09-10T13:09:58.721Z,100525.66
2022-09-10T13:12:27.255Z,100533.63
2022-09-10T13:14:57.647Z,100528.94
2022-09-10T13:17:51.415Z,100531.31
2022-09-10T13:20:21.668Z,100536.91
2022-09-10T13:23:10.137Z,100530.06
2022-09-10T13:25:40.325Z,100528.03
2022-09-10T13:28:32.782Z,100516.47
2022-09-10T13:31:03.905Z,100525.44
2022-09-10T13:33:44.086Z,100518.28
2022-09-10T13:36:11.545Z,100517.28
2022-09-10T13:39:03.150Z,100512.72
2022-09-10T13:41:41.965Z,100512.59
2022-09-10T13:44:25.460Z,100511.97
2022-09-10T13:46:59.979Z,100500.41
2022-09-10T13:49:37.666Z,100497.50
2022-09-10T13:52:12.494Z,100494.81
2022-09-10T13:54:46.712Z,100491.19
2022-09-10T13:57:35.522Z,100486.78
2022-09-10T14:00:07.118Z,100483.34
2022-09-10T14:03:06.088Z,100478.69
2022-09-10T14:05:36.575Z,100483.97
2022-09-10T14:08:13.797Z,100483.78
2022-09-10T14:11:14.492Z,100480.38
2022-09-10T14:13:54.224Z,100473.19
2022-09-10T14:16:46.722Z,100479.31
2022-09-10T14:19:48.054Z,100466.91
2022-09-10T14:22:38.246Z,100461.22
2022-09-10T14:25:06.305Z,100463.41
2022-09-10T14:27:36.412Z,100456.34
2022-09-10T14:30:18.402Z,100461.91
2022-09-10T14:33:15.769Z,100450.97
2022-09-10T14:35:49.363Z,100455.56
2022-09-10T14:38:24.500Z,100449.47
2022-09-10T14:40:58.398Z,100448.22
2022-09-10T14:43:38.482Z,100443.38
2022-09-10T14:46:15.007Z,100429.44
2022-09-10T14:49:09.640Z,100445.47
2022-09-10T14:51:52.048Z,100430.53
2022-09-10T14:54:22.896Z,100435.75
2022-09-10T14:56:50.867Z,100433.63
2022-09-10T14:59:22.906Z,100438.13
2022-09-10T15:01:51.662Z,100432.44
2022-09-10T15:04:26.827Z,100428.53
2022-09-10T15:06:59.110Z,100427.91
2022-09-10T15:09:36.159Z,100431.47
2022-09-10T15:12:20.052Z,100424.19
2022-09-10T15:14:47.688Z,100437.66
2022-09-10T15:17:17.733Z,100446.88
2022-09-10T15:19:47.216Z,100424.78
2022-09-10T15:22:25.787Z,100433.22
2022-09-10T15:25:11.139Z,100433.81
2022-09-10T15:27:41.871Z,100432.59
2022-09-10T15:30:12.293Z,100424.56
2022-09-10T15:32:40.444Z,100424.19
2022-09-10T15:35:09.673Z,100431.66
2022-09-10T15:37:43.124Z,100432.13
2022-09-10T15:40:18.112Z,100424.31
2022-09-10T15:42:45.728Z,100418.72
2022-09-10T15:45:15.593Z,100432.00
2022-09-10T15:47:43.234Z,100433.84
2022-09-10T15:50:11.942Z,100435.22
2022-09-10T15:52:41.284Z,100428.22
2022-09-10T15:55:12.532Z,100439.91
2022-09-10T15:57:40.637Z,100435.44
2022-09-10T16:00:08.987Z,100430.19
2022-09-10T16:02:41.172Z,100435.88
2022-09-10T16:05:12.356Z,100431.13
2022-09-10T16:07:40.087Z,100439.44
2022-09-10T16:10:08.176Z,100442.31
2022-09-10T16:12:35.687Z,100432.22
2022-09-10T16:15:03.761Z,100439.38
2022-09-10T16:17:32.272Z,100443.44
2022-09-10T16:20:02.947Z,100445.13
2022-09-10T16:22:32.725Z,100438.03
2022-09-10T16:25:00.208Z,100441.38
2022-09-10T16:27:27.774Z,100444.78
2022-09-10T16:29:55.343Z,100440.88
2022-09-10T16:32:24.739Z,100441.84
2022-09-10T16:34:52.401Z,100444.16
2022-09-10T16:37:20.025Z,100433.56
2022-09-10T16:39:47.607Z,100437.13
2022-09-10T16:42:15.133Z,100441.16
2022-09-10T16:44:42.728Z,100438.25
2022-09-10T16:47:13.100Z,100446.06
2022-09-10T16:49:43.287Z,100441.66
2022-09-10T16:52:12.078Z,100441.41
2022-09-10T16:54:40.253Z,100443.88
2022-09-10T16:57:07.953Z,100442.63
2022-09-10T16:59:35.604Z,100438.75
2022-09-10T17:02:03.397Z,100441.81
2022-09-10T17:04:32.486Z,100436.53
2022-09-10T17:07:00.224Z,100430.88
2022-09-10T17:09:27.932Z,100439.00
2022-09-10T17:11:55.643Z,100435.78
2022-09-10T17:14:23.487Z,100439.88
2022-09-10T17:16:51.165Z,100442.41
2022-09-10T17:19:23.640Z,100441.88
2022-09-10T17:21:55.155Z,100446.44
2022-09-10T17:24:25.522Z,100451.31
2022-09-10T17:26:55.164Z,100444.56
2022-09-10T17:29:26.137Z,100438.19
2022-09-10T17:31:55.544Z,100442.03
2022-09-10T17:34:24.786Z,100446.09
2022-09-10T17:36:52.846Z,100448.16
2022-09-10T17:39:21.011Z,100437.75
2022-09-10T17:41:50.865Z,100431.19
2022-09-10T17:44:21.453Z,100444.44
2022-09-10T17:46:49.041Z,100450.81
2022-09-10T17:49:16.898Z,100444.66
2022-09-10T17:51:45.379Z,100452.91
2022-09-10T17:54:13.654Z,100448.72
2022-09-10T17:56:42.302Z,100447.44
2022-09-10T17:59:14.620Z,100448.28
2022-09-10T18:01:43.089Z,100453.28
2022-09-10T18:04:15.782Z,100457.25
2022-09-10T18:06:47.857Z,100459.47
2022-09-10T18:09:17.814Z,100468.31
2022-09-10T18:11:45.563Z,100462.00
2022-09-10T18:14:18.412Z,100464.94
2022-09-10T18:16:49.515Z,100477.28
2022-09-10T18:19:20.172Z,100470.31
2022-09-10T18:21:48.940Z,100470.03
2022-09-10T18:24:25.087Z,100482.16
2022-09-10T18:26:57.348Z,100473.53
2022-09-10T18:29:27.205Z,100486.72
2022-09-10T18:31:57.472Z,100489.94
2022-09-10T18:34:32.535Z,100500.50
2022-09-10T18:37:02.026Z,100499.78
2022-09-10T18:39:31.322Z,100501.50
2022-09-10T18:42:00.984Z,100512.75
2022-09-10T18:44:33.283Z,100509.59
2022-09-10T18:47:01.220Z,100513.84
2022-09-10T18:49:30.916Z,100513.31
2022-09-10T18:51:58.459Z,100512.97
2022-09-10T18:54:29.719Z,100513.47
2022-09-10T18:56:58.038Z,100520.59
2022-09-10T18:59:26.382Z,100523.53
2022-09-10T19:01:55.886Z,100524.75
2022-09-10T19:04:26.852Z,100530.69
2022-09-10T19:06:55.261Z,100531.84
2022-09-10T19:09:25.754Z,100550.53
2022-09-10T19:11:54.808Z,100534.03
2022-09-10T19:14:32.497Z,100555.00
2022-09-10T19:17:01.578Z,100542.03
2022-09-10T19:19:33.393Z,100548.56
2022-09-10T19:22:03.650Z,100554.63
2022-09-10T19:27:18.990Z,100555.53
2022-09-10T19:29:47.442Z,100552.09
2022-09-10T19:32:19.758Z,100559.16
2022-09-10T19:34:51.464Z,100556.91
2022-09-10T19:37:19.806Z,100562.56
2022-09-10T19:39:47.733Z,100563.03
2022-09-10T19:42:15.569Z,100566.97
2022-09-10T19:44:45.618Z,100563.56
2022-09-10T19:47:13.212Z,100565.59
2022-09-10T19:49:40.836Z,100557.84
2022-09-10T19:52:09.956Z,100559.59
2022-09-10T19:54:37.496Z,100559.88
2022-09-10T19:57:05.138Z,100567.97
2022-09-10T19:59:32.677Z,100567.84
2022-09-10T20:02:00.739Z,100577.19
2022-09-10T20:04:31.693Z,100582.38
2022-09-10T20:07:03.753Z,100576.41
2022-09-10T20:09:31.224Z,100571.75
2022-09-10T20:11:58.743Z,100576.72
2022-09-10T20:14:26.339Z,100574.78
2022-09-10T20:16:54.729Z,100586.44
2022-09-10T20:19:24.753Z,100588.72
2022-09-10T20:21:54.796Z,100590.03
2022-09-10T20:24:22.402Z,100581.59
2022-09-10T20:26:57.850Z,100580.50
2022-09-10T20:29:25.596Z,100580.78
2022-09-10T20:31:53.286Z,100580.09
2022-09-10T20:34:22.324Z,100577.94
2022-09-10T20:36:54.715Z,100570.84
2022-09-10T20:39:26.414Z,100577.53
2022-09-10T20:41:56.515Z,100581.34
2022-09-10T20:44:25.733Z,100577.09
2022-09-10T20:46:55.625Z,100575.97
2022-09-10T20:49:25.920Z,100566.69
2022-09-10T20:51:53.594Z,100572.00
2022-09-10T20:54:23.458Z,100576.91
2022-09-10T20:56:53.122Z,100580.19
2022-09-10T20:59:24.300Z,100578.41
2022-09-10T21:02:03.473Z,100584.97
2022-09-10T21:04:33.088Z,100585.91
2022-09-10T21:07:04.285Z,100584.56
2022-09-10T21:26:38.750Z,100601.09
2022-09-10T21:29:31.857Z,100609.50
2022-09-10T21:42:30.281Z,100600.66
2022-09-10T21:46:47.133Z,100619.50
2022-09-10T21:53:32.354Z,100613.44
2022-09-10T22:14:03.826Z,100626.91
2022-09-10T22:16:32.916Z,100619.88
2022-09-10T22:19:03.186Z,100623.28
2022-09-10T22:21:31.183Z,100630.34
2022-09-10T22:23:59.006Z,100636.63
2022-09-10T22:26:31.141Z,100639.03
2022-09-10T22:29:02.654Z,100636.63
2022-09-10T22:31:32.799Z,100633.84
2022-09-10T22:34:06.431Z,100641.28
2022-09-10T22:36:36.491Z,100649.00
2022-09-10T22:39:08.536Z,100645.75
2022-09-10T22:41:36.510Z,100649.91
2022-09-10T22:44:04.805Z,100645.00
2022-09-10T22:46:35.096Z,100651.84
2022-09-10T22:49:03.473Z,100639.41
2022-09-10T22:51:35.396Z,100650.75
2022-09-10T22:54:04.965Z,100647.66
2022-09-10T22:56:35.510Z,100650.34
2022-09-10T22:59:04.086Z,100654.88
2022-09-10T23:01:38.309Z,100648.94
2022-09-10T23:04:07.295Z,100653.19
2022-09-10T23:06:37.276Z,100648.81
2022-09-10T23:09:12.406Z,100663.31
2022-09-10T23:11:40.793Z,100651.41
2022-09-10T23:14:13.072Z,100663.88
2022-09-10T23:16:42.967Z,100665.56
2022-09-10T23:19:16.290Z,100654.53
2022-09-10T23:21:48.680Z,100646.78
2022-09-10T23:24:18.943Z,100644.59
2022-09-10T23:26:46.663Z,100646.03
2022-09-10T23:29:18.298Z,100646.97
2022-09-10T23:31:46.599Z,100643.88
2022-09-10T23:34:17.035Z,100641.13
2022-09-10T23:36:46.501Z,100646.38
2022-09-10T23:39:20.162Z,100644.63
2022-09-10T23:41:49.919Z,100653.50
2022-09-10T23:44:17.984Z,100653.47
2022-09-10T23:46:45.696Z,100650.69
2022-09-10T23:49:13.513Z,100644.06
2022-09-10T23:51:43.493Z,100644.91
2022-09-10T23:54:11.563Z,100641.03
2022-09-10T23:56:40.063Z,100650.53
2022-09-10T23:59:08.304Z,100643.63
